Time;durP1;ratioP1;P1;durP2;ratioP2;P2;SDS_P1;SDS_P2;PMS_P1;PMS_P2;Temp;Humidity;BMP_temperature;BMP_pressure;BME280_temperature;BME280_humidity;BME280_pressure;Samples;Min_cycle;Max_cycle;Signal;HPM_P1;HPM_P2
2022/03/29 00:00:08;;;;;;;25.17;22.53;;;7.40;99.90;;;;;;5094927;28;20444;-78
2022/03/29 00:02:40;;;;;;;27.00;24.20;;;7.40;99.90;;;;;;5095293;28;20473;-77
2022/03/29 00:05:09;;;;;;;26.47;23.67;;;7.40;99.90;;;;;;5092165;28;20530;-78
2022/03/29 00:07:37;;;;;;;27.03;24.27;;;7.40;99.90;;;;;;5092962;28;20510;-78
2022/03/29 00:10:06;;;;;;;27.80;24.93;;;7.40;99.90;;;;;;5094641;28;20483;-78
2022/03/29 00:12:35;;;;;;;26.50;23.67;;;7.40;99.90;;;;;;5092644;28;20454;-77
2022/03/29 00:15:05;;;;;;;26.60;23.80;;;7.40;99.90;;;;;;5093038;28;20467;-78
2022/03/29 00:17:34;;;;;;;26.47;23.70;;;7.40;99.90;;;;;;5094857;28;20992;-78
2022/03/29 00:20:03;;;;;;;26.30;23.60;;;7.40;99.90;;;;;;5094386;28;20447;-77
2022/03/29 00:22:32;;;;;;;26.53;23.83;;;7.40;99.90;;;;;;5094737;28;20467;-77
2022/03/29 00:25:00;;;;;;;26.80;23.73;;;7.40;99.90;;;;;;5074004;28;20562;-78
2022/03/29 00:27:28;;;;;;;28.43;24.80;;;7.40;99.90;;;;;;5072881;28;20909;-78
2022/03/29 00:29:56;;;;;;;24.80;22.30;;;7.30;99.90;;;;;;5074442;28;20539;-78
2022/03/29 00:32:25;;;;;;;27.53;24.57;;;7.30;99.90;;;;;;5072742;28;20456;-78
2022/03/29 00:34:54;;;;;;;27.07;24.33;;;7.30;99.90;;;;;;5073857;28;20968;-77
2022/03/29 00:37:23;;;;;;;26.10;23.40;;;7.30;99.90;;;;;;5073804;28;20803;-78
2022/03/29 00:39:51;;;;;;;25.00;21.90;;;7.30;99.90;;;;;;5067158;28;20999;-78
2022/03/29 00:42:19;;;;;;;29.30;24.80;;;7.30;99.90;;;;;;5057497;28;20443;-78
2022/03/29 00:44:48;;;;;;;24.27;21.83;;;7.30;99.90;;;;;;5074301;28;20475;-77
2022/03/29 00:47:16;;;;;;;26.03;23.43;;;7.30;99.90;;;;;;5073963;28;20516;-77
2022/03/29 00:49:45;;;;;;;28.70;24.40;;;7.30;99.90;;;;;;5080986;28;20463;-77
2022/03/29 00:52:15;;;;;;;27.23;24.43;;;7.30;99.90;;;;;;5094183;28;20432;-77
2022/03/29 00:54:46;;;;;;;28.87;26.00;;;7.30;99.90;;;;;;5092586;28;20978;-78
2022/03/29 00:57:14;;;;;;;26.73;23.83;;;7.30;99.90;;;;;;5097368;28;20474;-77
2022/03/29 00:59:44;;;;;;;25.93;23.23;;;7.30;99.90;;;;;;5096528;28;20457;-77
2022/03/29 01:02:12;;;;;;;27.53;23.83;;;7.30;99.90;;;;;;5096273;28;20458;-78
2022/03/29 01:04:40;;;;;;;27.53;23.23;;;7.30;99.90;;;;;;5094856;28;20822;-77
2022/03/29 01:07:09;;;;;;;28.73;25.93;;;7.30;99.90;;;;;;5079705;28;20554;-78
2022/03/29 01:09:39;;;;;;;28.33;24.90;;;7.30;99.90;;;;;;5075727;28;20471;-77
2022/03/29 01:12:08;;;;;;;29.20;26.13;;;7.20;99.90;;;;;;5075624;28;20450;-77
2022/03/29 01:14:37;;;;;;;26.80;24.00;;;7.20;99.90;;;;;;5075939;28;20458;-77
2022/03/29 01:19:53;;;;;;;28.20;25.40;;;7.20;99.90;;;;;;5083031;28;20815;-77
2022/03/29 01:22:23;;;;;;;30.00;26.70;;;7.20;99.90;;;;;;5097267;28;20544;-78
2022/03/29 01:24:53;;;;;;;28.07;25.03;;;7.20;99.90;;;;;;5096065;28;20461;-78
2022/03/29 01:27:23;;;;;;;28.70;25.63;;;7.20;99.90;;;;;;5095812;28;20559;-77
2022/03/29 01:29:56;;;;;;;28.43;25.10;;;7.20;99.90;;;;;;5095740;28;20485;-77
2022/03/29 01:32:28;;;;;;;26.67;23.90;;;7.20;99.90;;;;;;5095675;28;20955;-77
2022/03/29 01:34:58;;;;;;;33.33;25.33;;;7.20;99.90;;;;;;5095523;28;20441;-78
2022/03/29 01:37:27;;;;;;;28.90;25.27;;;7.10;99.90;;;;;;5077236;28;20482;-77
2022/03/29 01:39:55;;;;;;;29.10;26.07;;;7.10;99.90;;;;;;5092797;28;20864;-77
2022/03/29 01:42:24;;;;;;;28.27;25.27;;;7.10;99.90;;;;;;5086880;28;20514;-77
2022/03/29 01:44:52;;;;;;;29.07;26.03;;;7.10;99.90;;;;;;5082480;28;20479;-77
2022/03/29 01:47:22;;;;;;;27.30;24.47;;;7.10;99.90;;;;;;5095196;28;20566;-77
2022/03/29 01:49:51;;;;;;;29.20;26.10;;;7.10;99.90;;;;;;5089263;28;20488;-77
2022/03/29 01:52:19;;;;;;;29.50;26.30;;;7.00;99.90;;;;;;5083720;28;20821;-77
2022/03/29 01:54:49;;;;;;;32.70;25.87;;;7.00;99.90;;;;;;5076443;28;20498;-78
2022/03/29 01:57:18;;;;;;;27.60;24.60;;;7.00;99.90;;;;;;5074830;28;20930;-77
2022/03/29 02:02:31;;;;;;;29.27;25.20;;;7.00;99.90;;;;;;5074874;28;20456;-77
2022/03/29 02:04:59;;;;;;;27.40;24.60;;;7.00;99.90;;;;;;5083047;28;20876;-77
2022/03/29 02:07:28;;;;;;;28.77;25.60;;;7.00;99.90;;;;;;5083994;28;20463;-77
2022/03/29 02:09:57;;;;;;;29.30;26.30;;;7.00;99.90;;;;;;5088389;28;20445;-78
2022/03/29 02:12:25;;;;;;;28.97;25.10;;;7.00;99.90;;;;;;5096265;28;20534;-77
2022/03/29 02:14:54;;;;;;;28.87;25.87;;;7.00;99.90;;;;;;5077915;28;20454;-78
2022/03/29 02:17:22;;;;;;;31.90;26.03;;;7.00;99.90;;;;;;5076220;28;20482;-78
2022/03/29 02:19:50;;;;;;;28.47;25.53;;;7.00;99.90;;;;;;5082440;28;20498;-78
2022/03/29 02:22:18;;;;;;;29.87;26.40;;;7.00;99.90;;;;;;5078192;28;20450;-78
2022/03/29 02:24:46;;;;;;;29.27;26.20;;;7.00;99.90;;;;;;5092319;28;21019;-77
2022/03/29 02:27:16;;;;;;;31.83;27.60;;;7.00;99.90;;;;;;5077499;28;20920;-78
2022/03/29 02:29:44;;;;;;;30.60;27.20;;;7.00;99.90;;;;;;5085939;28;20486;-78
2022/03/29 02:32:12;;;;;;;31.37;27.50;;;7.00;99.90;;;;;;5074196;28;20445;-77
2022/03/29 02:34:40;;;;;;;29.20;25.73;;;7.00;99.90;;;;;;5074246;28;20541;-77
2022/03/29 02:37:10;;;;;;;32.77;26.90;;;7.00;99.90;;;;;;5075283;28;20475;-77
2022/03/29 02:39:38;;;;;;;31.27;27.90;;;7.00;99.90;;;;;;5075730;28;20535;-77
2022/03/29 02:42:07;;;;;;;33.30;27.87;;;7.00;99.90;;;;;;5076016;28;20855;-77
2022/03/29 02:44:37;;;;;;;32.40;25.93;;;7.00;99.90;;;;;;5073722;28;21053;-77
2022/03/29 02:47:05;;;;;;;30.90;27.63;;;7.00;99.90;;;;;;5078859;28;20475;-78
2022/03/29 02:49:34;;;;;;;33.80;29.47;;;7.00;99.90;;;;;;5075022;28;20498;-77
2022/03/29 02:52:02;;;;;;;31.10;27.43;;;7.00;99.90;;;;;;5075288;28;20540;-77
2022/03/29 02:54:31;;;;;;;30.80;27.60;;;7.00;99.90;;;;;;5077050;28;20459;-77
2022/03/29 02:56:59;;;;;;;32.13;27.57;;;7.00;99.90;;;;;;5070077;28;20485;-77
2022/03/29 02:59:27;;;;;;;33.70;28.63;;;7.00;99.90;;;;;;5060436;28;20507;-77
2022/03/29 03:01:58;;;;;;;32.13;28.73;;;7.00;99.90;;;;;;5075355;28;20534;-78
2022/03/29 03:04:26;;;;;;;33.63;30.23;;;7.10;99.90;;;;;;5074843;28;20544;-78
2022/03/29 03:06:55;;;;;;;37.53;29.17;;;7.10;99.90;;;;;;5087783;28;20471;-77
2022/03/29 03:09:24;;;;;;;36.60;30.63;;;7.10;99.90;;;;;;5083176;28;20569;-78
2022/03/29 03:11:52;;;;;;;35.13;27.67;;;7.10;99.90;;;;;;5093483;28;20446;-78
2022/03/29 03:14:20;;;;;;;35.50;28.50;;;7.10;99.90;;;;;;5091339;28;20979;-78
2022/03/29 03:16:48;;;;;;;29.77;26.67;;;7.10;99.90;;;;;;5085029;28;20565;-78
2022/03/29 03:19:37;;;;;;;32.63;27.30;;;7.10;99.90;;;;;;5080024;28;20453;-78
2022/03/29 03:22:05;;;;;;;28.73;25.40;;;7.10;99.90;;;;;;5089538;28;20460;-78
2022/03/29 03:24:33;;;;;;;34.93;27.40;;;7.10;99.90;;;;;;5086133;28;20607;-77
2022/03/29 03:27:02;;;;;;;28.60;25.60;;;7.10;99.90;;;;;;5073014;28;20463;-78
2022/03/29 03:29:30;;;;;;;30.03;26.93;;;7.10;99.90;;;;;;5084120;28;20559;-77
2022/03/29 03:31:58;;;;;;;32.10;28.60;;;7.10;99.90;;;;;;5077445;28;20450;-78
2022/03/29 03:34:27;;;;;;;34.97;28.50;;;7.10;99.90;;;;;;5062035;28;20971;-77
2022/03/29 03:36:58;;;;;;;30.13;27.13;;;7.10;99.90;;;;;;5093215;28;20569;-77
2022/03/29 03:39:26;;;;;;;32.30;28.93;;;7.10;99.90;;;;;;5079259;28;20850;-77
2022/03/29 03:41:55;;;;;;;32.27;27.53;;;7.10;99.90;;;;;;5070887;28;20529;-77
2022/03/29 03:44:23;;;;;;;29.90;26.80;;;7.10;99.90;;;;;;5092101;28;20450;-77
2022/03/29 03:46:51;;;;;;;33.23;27.83;;;7.10;99.90;;;;;;5088803;28;20475;-77
2022/03/29 03:49:20;;;;;;;30.57;27.57;;;7.10;99.90;;;;;;5069410;28;20462;-77
2022/03/29 03:51:48;;;;;;;31.40;28.10;;;7.10;99.90;;;;;;5052570;28;20530;-77
2022/03/29 03:54:17;;;;;;;32.33;28.83;;;7.10;99.90;;;;;;5087515;28;20453;-78
2022/03/29 03:56:46;;;;;;;31.13;27.70;;;7.10;99.90;;;;;;5071378;28;20484;-77
2022/03/29 03:59:14;;;;;;;30.97;26.90;;;7.10;99.90;;;;;;5074188;28;20444;-77
2022/03/29 04:01:42;;;;;;;31.20;27.20;;;7.10;99.90;;;;;;5074158;28;20454;-77
2022/03/29 04:04:11;;;;;;;29.30;26.13;;;7.10;99.90;;;;;;5089307;28;20456;-77
2022/03/29 04:06:39;;;;;;;31.93;27.07;;;7.10;99.90;;;;;;5073871;28;20466;-78
2022/03/29 04:09:07;;;;;;;31.07;27.87;;;7.10;99.90;;;;;;5072547;28;20536;-77
2022/03/29 04:11:37;;;;;;;34.37;28.90;;;7.10;99.90;;;;;;5072377;28;20466;-77
2022/03/29 04:14:05;;;;;;;31.47;26.93;;;7.10;99.90;;;;;;5072491;28;20444;-77
2022/03/29 04:16:33;;;;;;;29.10;25.17;;;7.10;99.90;;;;;;5072316;28;20473;-78
2022/03/29 04:19:03;;;;;;;30.00;26.37;;;7.10;99.90;;;;;;5072206;28;20445;-77
2022/03/29 04:21:31;;;;;;;30.20;27.10;;;7.10;99.90;;;;;;5091005;28;20494;-78
2022/03/29 04:24:01;;;;;;;30.67;27.40;;;7.10;99.90;;;;;;5092403;28;20558;-77
2022/03/29 04:26:30;;;;;;;29.80;26.27;;;7.10;99.90;;;;;;5092495;28;20479;-77
2022/03/29 04:29:00;;;;;;;33.90;29.30;;;7.10;99.90;;;;;;5088057;28;20441;-78
2022/03/29 04:31:28;;;;;;;31.70;27.30;;;7.10;99.90;;;;;;5073484;28;20543;-78
2022/03/29 04:33:58;;;;;;;27.73;24.17;;;7.10;99.90;;;;;;5076281;28;20444;-77
2022/03/29 04:36:26;;;;;;;31.97;25.77;;;7.10;99.90;;;;;;5076198;28;20510;-78
2022/03/29 04:38:57;;;;;;;30.33;26.13;;;7.10;99.90;;;;;;5090325;28;20857;-78
2022/03/29 04:41:26;;;;;;;29.93;26.77;;;7.10;99.90;;;;;;5097579;28;20897;-77
2022/03/29 04:43:58;;;;;;;30.47;25.00;;;7.10;99.90;;;;;;5096570;28;20443;-77
2022/03/29 04:46:28;;;;;;;33.33;26.50;;;7.10;99.90;;;;;;5084513;28;20512;-77
2022/03/29 04:48:56;;;;;;;32.67;27.23;;;7.10;99.90;;;;;;5076611;28;20938;-78
2022/03/29 04:51:29;;;;;;;29.00;25.77;;;7.10;99.90;;;;;;5076541;28;20544;-77
2022/03/29 04:53:57;;;;;;;34.97;26.50;;;7.10;99.90;;;;;;5057505;28;20446;-78
2022/03/29 04:56:25;;;;;;;29.27;26.17;;;7.10;99.90;;;;;;5096934;28;20833;-77
2022/03/29 04:58:53;;;;;;;29.87;25.50;;;7.10;99.90;;;;;;5088455;28;20555;-77
2022/03/29 05:01:22;;;;;;;28.67;24.93;;;7.10;99.90;;;;;;5055738;28;21030;-78
2022/03/29 05:03:51;;;;;;;28.50;24.87;;;7.10;99.90;;;;;;5056991;28;20458;-77
2022/03/29 05:06:20;;;;;;;30.93;27.77;;;7.10;99.90;;;;;;5055574;28;20562;-77
2022/03/29 05:08:48;;;;;;;31.00;26.10;;;7.10;99.90;;;;;;5084241;28;20926;-77
2022/03/29 05:11:16;;;;;;;27.27;24.27;;;7.10;99.90;;;;;;5095867;28;20446;-78
2022/03/29 05:13:44;;;;;;;31.60;26.57;;;7.10;99.90;;;;;;5095932;28;20458;-77
2022/03/29 05:16:12;;;;;;;29.50;26.40;;;7.10;99.90;;;;;;5095928;28;20457;-78
2022/03/29 05:18:42;;;;;;;32.13;27.03;;;7.10;99.90;;;;;;5095573;28;20509;-77
2022/03/29 05:21:12;;;;;;;29.80;25.77;;;7.10;99.90;;;;;;5090380;28;20561;-78
2022/03/29 05:23:40;;;;;;;30.03;26.43;;;7.10;99.90;;;;;;5095071;28;20503;-77
2022/03/29 05:26:08;;;;;;;29.73;26.47;;;7.10;99.90;;;;;;5076723;28;20458;-78
2022/03/29 05:28:36;;;;;;;32.20;27.63;;;7.10;99.90;;;;;;5074089;28;20454;-77
2022/03/29 05:31:04;;;;;;;31.17;26.63;;;7.10;99.90;;;;;;5075247;28;20872;-77
2022/03/29 05:33:33;;;;;;;34.83;27.90;;;7.10;99.90;;;;;;5075386;28;20542;-77
2022/03/29 05:36:02;;;;;;;31.23;28.00;;;7.00;99.90;;;;;;5075427;28;20492;-77
2022/03/29 05:38:32;;;;;;;31.07;27.33;;;7.10;99.90;;;;;;5073805;28;20902;-78
2022/03/29 05:41:00;;;;;;;28.63;25.47;;;7.10;99.90;;;;;;5075138;28;20452;-78
2022/03/29 05:43:28;;;;;;;31.93;27.80;;;7.10;99.90;;;;;;5074739;28;20553;-78
2022/03/29 05:48:56;;;;;;;30.80;26.07;;;7.10;99.90;;;;;;5078067;28;20409;-78
2022/03/29 05:51:25;;;;;;;34.50;27.13;;;7.10;99.90;;;;;;5080185;28;20449;-78
2022/03/29 05:53:56;;;;;;;34.47;28.20;;;7.10;99.90;;;;;;5097811;28;20934;-78
2022/03/29 05:56:24;;;;;;;33.47;28.43;;;7.10;99.90;;;;;;5097816;28;20479;-79
2022/03/29 05:58:55;;;;;;;30.63;26.73;;;7.10;99.90;;;;;;5098739;28;20476;-78
2022/03/29 06:01:23;;;;;;;32.43;28.17;;;7.10;99.90;;;;;;5080902;28;20440;-78
2022/03/29 06:03:52;;;;;;;32.83;27.77;;;7.10;99.90;;;;;;5078520;28;20447;-78
2022/03/29 06:06:21;;;;;;;32.33;28.17;;;7.10;99.90;;;;;;5083550;28;20462;-78
2022/03/29 06:08:49;;;;;;;34.23;29.13;;;7.20;99.90;;;;;;5086492;28;20443;-78
2022/03/29 06:11:19;;;;;;;31.37;28.13;;;7.20;99.90;;;;;;5076594;28;20471;-78
2022/03/29 06:13:47;;;;;;;34.33;29.60;;;7.20;99.90;;;;;;5076296;28;20471;-78
2022/03/29 06:16:15;;;;;;;31.13;27.77;;;7.20;99.90;;;;;;5079368;28;20453;-78
2022/03/29 06:18:44;;;;;;;34.53;27.83;;;7.20;99.90;;;;;;5076579;28;20527;-78
2022/03/29 06:21:12;;;;;;;32.27;28.70;;;7.20;99.90;;;;;;5077506;28;20441;-78
2022/03/29 06:23:40;;;;;;;32.33;28.83;;;7.20;99.90;;;;;;5040288;28;1142302;-78
2022/03/29 06:26:09;;;;;;;33.20;29.90;;;7.20;99.90;;;;;;5079553;28;20190;-78
2022/03/29 06:28:38;;;;;;;33.57;28.87;;;7.20;99.90;;;;;;5080693;28;20778;-77
2022/03/29 06:31:07;;;;;;;32.37;27.60;;;7.20;99.90;;;;;;5077112;28;20456;-78
2022/03/29 06:33:36;;;;;;;34.20;30.47;;;7.20;99.90;;;;;;5076641;28;20454;-80
2022/03/29 06:36:04;;;;;;;34.23;30.13;;;7.20;99.90;;;;;;5094251;28;20975;-78
2022/03/29 06:38:32;;;;;;;29.97;26.87;;;7.30;99.90;;;;;;5097073;28;20473;-78
2022/03/29 06:41:01;;;;;;;33.77;28.40;;;7.30;99.90;;;;;;5077391;28;20822;-78
2022/03/29 06:43:29;;;;;;;32.50;28.60;;;7.30;99.90;;;;;;5077468;28;20441;-78
2022/03/29 06:45:59;;;;;;;31.70;28.40;;;7.30;99.90;;;;;;5076877;28;20539;-78
2022/03/29 06:48:27;;;;;;;35.27;27.70;;;7.30;99.90;;;;;;5076022;28;20482;-78
2022/03/29 06:50:56;;;;;;;36.13;28.37;;;7.30;99.90;;;;;;5086208;28;20539;-78
2022/03/29 06:53:24;;;;;;;36.87;28.13;;;7.30;99.90;;;;;;5075970;28;20800;-78
2022/03/29 06:55:52;;;;;;;33.47;28.00;;;7.30;99.90;;;;;;5089798;28;20502;-77
2022/03/29 06:58:21;;;;;;;30.23;26.90;;;7.40;99.90;;;;;;5095185;28;21059;-77
2022/03/29 07:00:49;;;;;;;29.30;26.23;;;7.40;99.90;;;;;;5096174;28;20445;-78
2022/03/29 07:03:21;;;;;;;30.13;25.57;;;7.40;99.90;;;;;;5095912;28;20490;-77
2022/03/29 07:05:50;;;;;;;33.50;26.77;;;7.40;99.90;;;;;;5089764;28;20439;-78
2022/03/29 07:08:20;;;;;;;29.33;23.80;;;7.50;99.90;;;;;;5082207;28;20576;-75
2022/03/29 07:13:38;;;;;;;29.00;24.67;;;7.50;99.90;;;;;;5075561;28;20469;-78
2022/03/29 07:16:07;;;;;;;27.80;24.03;;;7.50;99.90;;;;;;5077334;28;20440;-78
2022/03/29 07:18:37;;;;;;;28.97;23.87;;;7.50;99.90;;;;;;5097918;28;20463;-78
2022/03/29 07:21:05;;;;;;;29.43;23.70;;;7.50;99.90;;;;;;5098389;28;20439;-78
2022/03/29 07:23:34;;;;;;;29.77;23.30;;;7.60;99.90;;;;;;5096376;28;20554;-78
2022/03/29 07:26:02;;;;;;;33.63;24.33;;;7.60;99.90;;;;;;5096614;28;20821;-79
2022/03/29 07:28:30;;;;;;;26.60;23.80;;;7.60;99.90;;;;;;5088374;28;20452;-78
2022/03/29 07:30:58;;;;;;;27.83;23.53;;;7.60;99.90;;;;;;5075746;28;21008;-78
2022/03/29 07:33:26;;;;;;;28.27;23.77;;;7.60;99.90;;;;;;5080016;28;20531;-77
2022/03/29 07:35:56;;;;;;;25.40;22.60;;;7.60;99.90;;;;;;5091681;28;20438;-78
2022/03/29 07:38:24;;;;;;;29.23;21.73;;;7.70;99.90;;;;;;5089420;28;20575;-78
2022/03/29 07:40:52;;;;;;;26.20;23.00;;;7.70;99.90;;;;;;5073263;28;20445;-78
2022/03/29 07:43:20;;;;;;;28.50;22.70;;;7.70;99.90;;;;;;5077953;28;20454;-78
2022/03/29 07:45:50;;;;;;;25.90;23.13;;;7.70;99.90;;;;;;5073457;28;20444;-78
2022/03/29 07:48:19;;;;;;;25.73;22.73;;;7.80;99.90;;;;;;5087348;28;20835;-78
2022/03/29 07:51:10;;;;;;;24.70;22.10;;;7.80;99.90;;;;;;5093799;28;20971;-79
2022/03/29 07:53:40;;;;;;;26.10;21.73;;;7.70;99.90;;;;;;5094552;28;20492;-79
2022/03/29 07:56:08;;;;;;;27.20;22.67;;;7.70;99.90;;;;;;5093836;28;20479;-80
2022/03/29 07:58:36;;;;;;;26.67;22.90;;;7.70;99.90;;;;;;5093620;28;20458;-78
2022/03/29 08:01:05;;;;;;;26.80;22.63;;;7.80;99.90;;;;;;5094526;28;20451;-80
2022/03/29 08:03:34;;;;;;;25.00;19.63;;;7.80;99.90;;;;;;5082409;28;20454;-78
2022/03/29 08:06:04;;;;;;;26.57;21.23;;;7.80;99.90;;;;;;5074980;28;20509;-78
2022/03/29 08:08:34;;;;;;;26.93;24.07;;;7.80;99.90;;;;;;5075240;28;20843;-79
2022/03/29 08:11:03;;;;;;;26.17;19.97;;;7.80;99.90;;;;;;5073623;28;20972;-78
2022/03/29 08:13:32;;;;;;;22.10;18.57;;;7.90;99.90;;;;;;5073648;28;20448;-78
2022/03/29 08:16:01;;;;;;;20.40;15.73;;;7.90;99.90;;;;;;5083688;28;20542;-78
2022/03/29 08:18:30;;;;;;;19.93;12.80;;;7.90;99.90;;;;;;5094184;28;20502;-78
2022/03/29 08:20:58;;;;;;;17.67;12.00;;;7.90;99.90;;;;;;5094135;28;20894;-78
2022/03/29 08:23:27;;;;;;;18.70;11.30;;;8.00;99.90;;;;;;5092561;28;20505;-78
2022/03/29 08:25:58;;;;;;;14.63;10.87;;;8.00;99.90;;;;;;5075718;28;20547;-78
2022/03/29 08:28:26;;;;;;;15.80;10.93;;;8.00;99.90;;;;;;5076963;28;21000;-78
2022/03/29 08:30:55;;;;;;;16.50;11.03;;;8.10;99.90;;;;;;5075709;28;20559;-78
2022/03/29 08:33:23;;;;;;;14.77;9.80;;;8.10;99.90;;;;;;5075618;28;20536;-78
2022/03/29 08:35:51;;;;;;;14.53;11.33;;;8.20;99.90;;;;;;5072978;28;20454;-78
2022/03/29 08:38:20;;;;;;;14.90;10.87;;;8.30;99.90;;;;;;5054976;28;20473;-78
2022/03/29 08:40:56;;;;;;;15.07;10.50;;;8.40;99.90;;;;;;5055565;28;20810;-78
2022/03/29 08:43:27;;;;;;;13.27;9.37;;;8.40;99.90;;;;;;5054520;28;20442;-78
2022/03/29 08:45:57;;;;;;;13.93;9.27;;;8.50;99.90;;;;;;5054615;28;20452;-79
2022/03/29 08:48:26;;;;;;;16.80;8.93;;;8.60;99.90;;;;;;5055606;28;20450;-78
2022/03/29 08:50:57;;;;;;;16.93;9.47;;;8.60;99.90;;;;;;5101873;28;20539;-78
2022/03/29 08:53:48;;;;;;;11.90;8.43;;;8.70;99.90;;;;;;5094708;28;20467;-78
2022/03/29 08:56:18;;;;;;;12.70;8.20;;;8.70;99.90;;;;;;5092888;28;20980;-78
2022/03/29 08:58:48;;;;;;;15.37;9.27;;;8.70;99.90;;;;;;5082029;28;20524;-78
2022/03/29 09:01:19;;;;;;;16.60;9.00;;;8.70;99.90;;;;;;5058220;28;20461;-79
2022/03/29 09:04:04;;;;;;;14.03;7.87;;;8.70;99.90;;;;;;5054206;28;20439;-78
2022/03/29 09:06:32;;;;;;;19.00;9.03;;;8.70;99.90;;;;;;5056211;28;20536;-78
2022/03/29 09:09:00;;;;;;;14.37;8.00;;;8.70;99.90;;;;;;5055469;28;20935;-78
2022/03/29 09:11:40;;;;;;;14.67;8.10;;;8.70;99.90;;;;;;5063477;28;21004;-78
2022/03/29 09:14:10;;;;;;;14.30;8.80;;;8.80;99.90;;;;;;5097392;28;20424;-78
2022/03/29 09:16:38;;;;;;;15.60;8.73;;;8.80;99.90;;;;;;5094809;28;20555;-78
2022/03/29 09:19:09;;;;;;;15.00;7.80;;;8.90;99.90;;;;;;5097046;28;20843;-78
2022/03/29 09:21:41;;;;;;;16.50;8.70;;;8.90;99.90;;;;;;5097468;28;20467;-78
2022/03/29 09:24:12;;;;;;;11.10;7.87;;;8.90;99.90;;;;;;5097182;28;20451;-78
2022/03/29 09:26:41;;;;;;;13.77;6.90;;;9.00;99.90;;;;;;5092811;28;20869;-78
2022/03/29 09:29:16;;;;;;;15.17;7.77;;;9.00;99.90;;;;;;5057146;28;20446;-78
2022/03/29 09:31:46;;;;;;;15.17;8.27;;;9.10;99.90;;;;;;5070161;28;20991;-78
2022/03/29 09:34:16;;;;;;;11.80;7.80;;;9.10;99.90;;;;;;5076898;28;20499;-78
2022/03/29 09:36:48;;;;;;;17.40;7.77;;;9.20;99.90;;;;;;5077339;28;20483;-78
2022/03/29 09:39:37;;;;;;;13.97;7.80;;;9.30;99.90;;;;;;5092085;28;20455;-78
2022/03/29 09:42:10;;;;;;;11.87;6.60;;;9.30;99.90;;;;;;5091326;28;20445;-78
2022/03/29 09:44:46;;;;;;;15.10;8.83;;;9.40;99.90;;;;;;5078246;28;20710;-78
2022/03/29 09:47:20;;;;;;;18.13;9.97;;;9.40;99.90;;;;;;5080592;28;20452;-78
2022/03/29 09:49:56;;;;;;;14.50;9.80;;;9.40;99.90;;;;;;5078713;28;20417;-78
2022/03/29 09:52:26;;;;;;;17.33;9.77;;;9.50;99.90;;;;;;5077181;28;20500;-78
2022/03/29 09:55:06;;;;;;;13.90;9.63;;;9.50;99.90;;;;;;5079156;28;20805;-79
2022/03/29 09:57:35;;;;;;;15.20;9.37;;;9.50;99.90;;;;;;5074391;28;20818;-78
2022/03/29 10:00:08;;;;;;;22.47;11.10;;;9.40;99.90;;;;;;5075667;28;20470;-78
2022/03/29 10:02:44;;;;;;;20.23;10.30;;;9.50;99.90;;;;;;5057468;28;20414;-78
2022/03/29 10:05:16;;;;;;;14.67;8.83;;;9.60;99.90;;;;;;5057869;28;20425;-78
2022/03/29 10:07:48;;;;;;;14.00;7.67;;;9.60;99.90;;;;;;5086188;28;20476;-76
2022/03/29 10:10:17;;;;;;;17.10;8.70;;;9.70;99.90;;;;;;5098397;28;20424;-78
2022/03/29 10:12:46;;;;;;;16.27;8.87;;;9.80;99.90;;;;;;5096578;28;20494;-78
2022/03/29 10:15:35;;;;;;;12.97;7.80;;;9.80;99.90;;;;;;5099286;28;20472;-77
2022/03/29 10:18:04;;;;;;;17.00;8.30;;;9.80;99.90;;;;;;5098635;28;20535;-78
2022/03/29 10:20:32;;;;;;;16.37;8.90;;;9.90;99.90;;;;;;5098592;28;20468;-78
2022/03/29 10:23:01;;;;;;;15.10;7.50;;;9.90;99.90;;;;;;5097549;28;20929;-78
2022/03/29 10:25:31;;;;;;;14.93;7.47;;;10.00;99.90;;;;;;5076252;28;21013;-77
2022/03/29 10:28:01;;;;;;;18.03;8.10;;;10.00;99.90;;;;;;5054471;28;20983;-76
2022/03/29 10:30:35;;;;;;;14.90;8.17;;;10.00;99.90;;;;;;5083754;28;20844;-79
2022/03/29 10:33:17;;;;;;;19.47;8.47;;;10.10;99.90;;;;;;5097671;28;20792;-78
2022/03/29 10:36:05;;;;;;;15.87;8.27;;;10.10;99.90;;;;;;5098190;28;20452;-77
2022/03/29 10:38:58;;;;;;;16.20;7.87;;;10.20;99.90;;;;;;5098456;28;20440;-78
2022/03/29 10:41:49;;;;;;;16.10;7.40;;;10.20;99.90;;;;;;5092501;28;20484;-78
2022/03/29 10:44:18;;;;;;;14.27;7.83;;;10.20;99.90;;;;;;5090815;28;20942;-79
2022/03/29 10:46:49;;;;;;;14.70;7.50;;;10.20;99.90;;;;;;5093985;28;21011;-78
2022/03/29 10:49:20;;;;;;;15.10;7.50;;;10.20;99.90;;;;;;5097579;28;20412;-78
2022/03/29 10:51:53;;;;;;;14.07;7.93;;;10.30;99.90;;;;;;5096258;28;20444;-78
2022/03/29 10:54:33;;;;;;;19.10;9.20;;;10.30;99.90;;;;;;5092589;28;20543;-78
2022/03/29 10:57:03;;;;;;;13.23;7.63;;;10.30;99.90;;;;;;5098839;28;20455;-78
2022/03/29 10:59:33;;;;;;;18.57;8.27;;;10.40;99.90;;;;;;5086331;28;20528;-78
2022/03/29 11:02:11;;;;;;;13.00;7.93;;;10.40;99.90;;;;;;5075531;28;20516;-78
2022/03/29 11:05:07;;;;;;;14.53;8.40;;;10.50;99.90;;;;;;5078362;28;20429;-79
2022/03/29 11:07:36;;;;;;;14.60;8.13;;;10.50;99.90;;;;;;5094637;28;20475;-78
2022/03/29 11:10:13;;;;;;;17.07;8.77;;;10.50;99.90;;;;;;5076961;28;20455;-77
2022/03/29 11:12:52;;;;;;;14.43;8.30;;;10.50;99.90;;;;;;5074123;28;20451;-78
2022/03/29 11:15:48;;;;;;;13.97;8.77;;;10.60;99.90;;;;;;5074821;28;20456;-78
2022/03/29 11:18:41;;;;;;;12.93;8.20;;;10.60;99.90;;;;;;5087802;28;20603;-79
2022/03/29 11:21:10;;;;;;;17.63;8.87;;;10.70;99.90;;;;;;5094381;28;20467;-78
2022/03/29 11:23:41;;;;;;;17.77;9.63;;;10.70;99.90;;;;;;5094861;28;20448;-78
2022/03/29 11:26:12;;;;;;;14.77;7.93;;;10.70;99.90;;;;;;5087398;28;20483;-78
2022/03/29 11:28:48;;;;;;;16.37;8.87;;;10.80;99.90;;;;;;5073657;28;20452;-78
2022/03/29 11:31:17;;;;;;;18.53;9.67;;;10.80;99.90;;;;;;5074349;28;20449;-78
2022/03/29 11:33:49;;;;;;;17.30;7.63;;;10.80;99.90;;;;;;5078178;28;20815;-79
2022/03/29 11:36:19;;;;;;;17.10;9.43;;;10.80;99.90;;;;;;5093186;28;20448;-77
2022/03/29 11:38:48;;;;;;;17.10;9.67;;;10.90;99.90;;;;;;5075562;28;20812;-78
2022/03/29 11:41:27;;;;;;;15.93;9.70;;;11.00;99.90;;;;;;5072323;28;20500;-77
2022/03/29 11:43:58;;;;;;;16.47;8.60;;;11.00;99.90;;;;;;5072601;28;20557;-76
2022/03/29 11:46:43;;;;;;;12.90;8.90;;;11.00;99.90;;;;;;5073900;28;20544;-78
2022/03/29 11:49:13;;;;;;;10.63;7.60;;;11.10;99.90;;;;;;5073068;28;20469;-78
2022/03/29 11:51:41;;;;;;;18.03;9.40;;;11.10;99.90;;;;;;5073533;28;20434;-78
2022/03/29 11:54:09;;;;;;;17.20;9.43;;;11.10;99.90;;;;;;5082900;28;20451;-78
2022/03/29 11:56:39;;;;;;;16.30;8.57;;;11.10;99.90;;;;;;5092040;28;20499;-78
2022/03/29 11:59:15;;;;;;;12.73;7.93;;;11.10;99.90;;;;;;5070524;28;20445;-77
2022/03/29 12:01:43;;;;;;;15.70;7.93;;;11.10;99.90;;;;;;5073498;28;20453;-78
2022/03/29 12:04:13;;;;;;;15.20;8.20;;;11.10;99.90;;;;;;5082318;28;20532;-78
2022/03/29 12:06:49;;;;;;;14.87;7.70;;;11.10;99.90;;;;;;5072226;28;20551;-78
2022/03/29 12:09:23;;;;;;;17.10;8.40;;;11.20;99.90;;;;;;5053660;28;20460;-78
2022/03/29 12:11:55;;;;;;;15.70;8.80;;;11.20;99.90;;;;;;5054058;28;20939;-79
2022/03/29 12:14:24;;;;;;;14.10;9.10;;;11.20;99.90;;;;;;5073586;28;20464;-78
2022/03/29 12:16:54;;;;;;;14.10;8.07;;;11.20;99.90;;;;;;5096197;28;20503;-78
2022/03/29 12:19:25;;;;;;;13.90;7.50;;;11.30;99.90;;;;;;5097194;28;20448;-79
2022/03/29 12:21:59;;;;;;;15.67;8.73;;;11.30;99.90;;;;;;5097453;28;20468;-79
2022/03/29 12:24:28;;;;;;;14.57;9.10;;;11.30;99.90;;;;;;5080221;28;20454;-79
2022/03/29 12:27:01;;;;;;;11.93;7.73;;;11.30;99.90;;;;;;5059335;28;20511;-79
2022/03/29 12:29:30;;;;;;;15.70;8.20;;;11.30;99.90;;;;;;5058588;28;20437;-79
2022/03/29 12:32:00;;;;;;;15.07;8.27;;;11.30;99.90;;;;;;5057867;28;20464;-79
2022/03/29 12:34:32;;;;;;;12.77;9.20;;;11.20;99.90;;;;;;5060185;28;20484;-79
2022/03/29 12:37:02;;;;;;;14.03;7.63;;;11.20;99.90;;;;;;5084333;28;20507;-79
2022/03/29 12:39:35;;;;;;;15.70;7.83;;;11.20;99.90;;;;;;5078721;28;20417;-79
2022/03/29 12:42:04;;;;;;;14.63;8.87;;;11.10;99.90;;;;;;5076795;28;20472;-79
2022/03/29 12:44:36;;;;;;;13.63;8.57;;;11.20;99.90;;;;;;5078009;28;20531;-79
2022/03/29 12:47:06;;;;;;;13.37;9.13;;;11.20;99.90;;;;;;5077118;28;20461;-79
2022/03/29 12:49:37;;;;;;;10.83;8.60;;;11.20;99.90;;;;;;5075048;28;20444;-79
2022/03/29 12:52:08;;;;;;;14.00;9.10;;;11.20;99.90;;;;;;5087089;28;20460;-79
2022/03/29 12:54:38;;;;;;;19.97;8.87;;;11.20;99.90;;;;;;5089110;28;20639;-79
2022/03/29 12:57:08;;;;;;;13.03;8.57;;;11.20;99.90;;;;;;5094057;28;20468;-79
2022/03/29 12:59:38;;;;;;;18.90;9.10;;;11.10;99.90;;;;;;5101238;28;20438;-79
2022/03/29 13:02:18;;;;;;;18.30;9.17;;;11.10;99.90;;;;;;5100532;28;20460;-79
2022/03/29 13:04:50;;;;;;;14.40;9.20;;;11.10;99.90;;;;;;5100573;28;20475;-79